logo
Search for airport 
image banner adimage banner adimage banner ad
image banner ad

LOGA - Bad Radkersburg Lkh

Located in District Sudoststeiermark, Austria

ICAO - , IATA -

Data provided by Airmate  

General information

Coordinates: N46°41'30" E15°59'30"
Elevation is 682 feet MSL.
 
View others Airports in Styria

Operational data

Special qualification required
Current time UTC:
Current local time:
Weather at : LJMB - Maribor/Orehova Vas ( 33 km )
METAR: LJMB 150900Z 21016KT CAVOK 25/09 Q1009
TAF: TAF LJMB 150500Z 1506/1606 22008KT CAVOK TEMPO 1508/1518 21015G25KT BECMG 1603/1605 36010KT
View NOTAMs / SUP AIP / TFR affecting this airport [VIEW]
Communications frequencies: [VIEW]

Runways:

Airport contact information

Address: District Sudoststeiermark Austria

Satellite view of LOGA